createdAt,value
2018-07-15T07:07:06.667Z,80.20
2018-07-15T07:09:35.709Z,74.90
2018-07-15T07:12:05.107Z,72.50
2018-07-15T07:14:33.804Z,69.60
2018-07-15T07:17:05.676Z,67.70
2018-07-15T07:19:37.669Z,66.30
2018-07-15T07:22:13.933Z,64.70
2018-07-15T07:24:42.750Z,63.10
2018-07-15T07:27:11.310Z,60.70
2018-07-15T07:29:40.095Z,58.80
2018-07-15T07:32:08.984Z,56.80
2018-07-15T07:34:43.381Z,55.30
2018-07-15T07:37:11.800Z,53.40
2018-07-15T07:39:40.340Z,52.10
2018-07-15T07:42:08.991Z,51.30
2018-07-15T07:44:40.397Z,52.00
2018-07-15T07:51:00.954Z,49.90
2018-07-15T07:53:29.774Z,48.20
2018-07-15T07:55:58.241Z,48.20
2018-07-15T07:58:29.992Z,46.60
2018-07-15T08:00:58.722Z,47.00
2018-07-15T08:03:28.225Z,46.80
2018-07-15T08:05:57.393Z,47.10
2018-07-15T08:08:27.109Z,45.90
2018-07-15T08:10:56.369Z,44.30
2018-07-15T08:13:25.164Z,42.90
2018-07-15T08:16:04.269Z,41.70
2018-07-15T08:18:32.920Z,41.00
2018-07-15T08:21:01.798Z,41.30
2018-07-15T08:23:30.919Z,41.00
2018-07-15T08:26:00.103Z,40.00
2018-07-15T08:28:28.984Z,38.90
2018-07-15T08:31:06.944Z,38.20
2018-07-15T08:33:35.419Z,38.40
2018-07-15T08:36:04.081Z,38.30
2018-07-15T08:46:24.048Z,36.80
2018-07-15T08:48:52.478Z,36.80
2018-07-15T08:51:21.324Z,36.00
2018-07-15T08:53:50.149Z,36.20
2018-07-15T08:56:19.195Z,35.30
2018-07-15T08:58:48.496Z,35.10
2018-07-15T09:01:17.983Z,34.20
2018-07-15T09:03:46.979Z,34.00
2018-07-15T09:06:16.073Z,33.70
2018-07-15T09:08:45.104Z,32.40
2018-07-15T09:11:13.731Z,32.80
2018-07-15T09:13:42.259Z,32.10
2018-07-15T09:16:10.711Z,31.00
2018-07-15T09:18:39.241Z,30.00
2018-07-15T09:21:07.719Z,29.40
2018-07-15T09:23:36.251Z,29.30
2018-07-15T09:26:05.018Z,29.50
2018-07-15T09:28:41.601Z,29.60
2018-07-15T09:31:11.636Z,30.00
2018-07-15T09:33:40.160Z,29.80
2018-07-15T09:36:08.799Z,29.40
2018-07-15T09:38:43.817Z,28.70
2018-07-15T09:41:13.156Z,29.30
2018-07-15T09:44:04.131Z,29.20
2018-07-15T09:46:32.884Z,29.50
2018-07-15T09:50:10.956Z,29.50
2018-07-15T09:52:39.709Z,29.90
2018-07-15T09:55:08.759Z,29.00
2018-07-15T09:57:37.662Z,28.70
2018-07-15T10:00:07.317Z,28.90
2018-07-15T10:02:38.132Z,29.30
2018-07-15T10:05:06.741Z,29.90
2018-07-15T10:07:35.648Z,29.10
2018-07-15T10:10:04.419Z,28.80
2018-07-15T10:12:37.114Z,29.00
2018-07-15T10:15:06.211Z,28.80
2018-07-15T10:17:34.817Z,28.90
2018-07-15T10:20:03.704Z,29.10
2018-07-15T10:22:33.433Z,28.80
2018-07-15T10:50:02.541Z,25.40
2018-07-15T10:52:32.060Z,25.80
2018-07-15T10:55:00.538Z,25.20
2018-07-15T10:57:29.143Z,24.30
2018-07-15T10:59:57.589Z,23.40
2018-07-15T11:02:26.117Z,23.40
2018-07-15T11:04:54.606Z,22.40
2018-07-15T11:07:23.474Z,22.00
2018-07-15T11:10:06.668Z,21.90
2018-07-15T11:15:33.338Z,21.60
2018-07-15T11:18:20.087Z,21.70
2018-07-15T11:20:48.536Z,21.40
2018-07-15T11:23:17.086Z,21.30
2018-07-15T11:25:45.582Z,20.90
2018-07-15T11:28:14.468Z,21.50
2018-07-15T11:30:42.944Z,21.70
2018-07-15T11:33:11.420Z,21.00
2018-07-15T11:35:40.170Z,21.00
2018-07-15T11:38:09.334Z,21.10
2018-07-15T11:40:38.007Z,21.10
2018-07-15T11:43:06.544Z,21.40
2018-07-15T11:45:35.256Z,20.20
2018-07-15T11:48:03.816Z,19.80
2018-07-15T12:36:46.683Z,21.80
2018-07-15T13:14:36.934Z,28.10
2018-07-15T13:29:52.539Z,28.50
2018-07-15T14:11:21.524Z,31.60
2018-07-15T15:03:41.236Z,39.90
2018-07-15T15:09:05.131Z,41.30
2018-07-15T15:11:55.114Z,41.80
2018-07-15T15:14:26.908Z,41.70
2018-07-15T15:16:55.503Z,40.50
2018-07-15T15:24:10.632Z,41.50
2018-07-15T15:26:39.328Z,42.50
2018-07-15T15:29:08.068Z,42.80
2018-07-15T15:31:36.683Z,42.90
2018-07-15T15:34:07.249Z,43.40
2018-07-15T15:36:36.067Z,43.30
2018-07-15T15:39:05.632Z,43.50
2018-07-15T15:41:34.708Z,43.40
2018-07-15T15:44:05.430Z,43.20
2018-07-15T15:46:34.289Z,43.80
2018-07-15T15:49:02.867Z,44.60
2018-07-15T15:51:49.935Z,44.70
2018-07-15T15:54:18.830Z,44.60
2018-07-15T15:56:52.328Z,45.80
2018-07-15T16:05:09.352Z,47.00
2018-07-15T16:07:47.027Z,47.40
2018-07-15T16:10:33.261Z,47.70
2018-07-15T16:13:01.743Z,48.20
2018-07-15T16:15:30.290Z,48.50
2018-07-15T16:17:59.308Z,48.60
2018-07-15T16:21:00.013Z,48.50
2018-07-15T16:23:35.556Z,48.60
2018-07-15T16:26:15.556Z,48.50
2018-07-15T16:28:44.089Z,48.50
2018-07-15T16:34:15.731Z,48.40
2018-07-15T16:36:44.286Z,48.80
2018-07-15T16:39:13.279Z,48.70
2018-07-15T16:41:41.876Z,48.70
2018-07-15T16:44:11.489Z,48.90
2018-07-15T16:46:40.251Z,48.90
2018-07-15T16:49:10.944Z,49.90
2018-07-15T16:51:41.780Z,50.60
2018-07-15T16:54:42.485Z,51.10
2018-07-15T16:57:11.590Z,51.90
2018-07-15T16:59:40.353Z,52.70
2018-07-15T17:02:09.096Z,53.00
2018-07-15T17:04:37.782Z,53.20
2018-07-15T17:07:11.385Z,53.70
2018-07-15T17:09:40.456Z,54.20
2018-07-15T17:12:10.798Z,54.80
2018-07-15T17:14:39.478Z,55.20
2018-07-15T17:17:08.415Z,56.30
2018-07-15T17:19:37.300Z,57.10
2018-07-15T17:22:06.063Z,57.70
2018-07-15T17:24:36.943Z,57.80
2018-07-15T17:27:07.769Z,58.30
2018-07-15T17:29:36.453Z,59.10
2018-07-15T17:32:05.355Z,58.90
2018-07-15T17:34:34.213Z,59.70
2018-07-15T17:37:03.116Z,60.00
2018-07-15T17:39:32.117Z,59.70
2018-07-15T17:42:00.729Z,59.70
2018-07-15T17:44:29.438Z,59.30
2018-07-15T17:46:59.160Z,59.70
2018-07-15T17:49:27.711Z,60.00
2018-07-15T17:51:56.411Z,60.00
2018-07-15T17:54:25.130Z,59.40
2018-07-15T17:56:53.644Z,59.70
2018-07-15T17:59:23.115Z,60.50
2018-07-15T18:01:51.752Z,61.40
2018-07-15T18:04:20.513Z,62.40
2018-07-15T18:06:48.953Z,64.00
2018-07-15T18:09:17.744Z,65.40
2018-07-15T18:11:46.328Z,68.20
2018-07-15T18:14:39.717Z,71.50
2018-07-15T18:17:14.772Z,75.30
2018-07-15T18:19:43.486Z,81.90
2018-07-15T18:22:12.279Z,87.80
2018-07-15T18:24:40.799Z,90.90
2018-07-15T18:27:09.404Z,92.10
2018-07-15T18:29:38.021Z,92.60
2018-07-15T18:32:06.810Z,92.20
2018-07-15T18:34:36.264Z,91.60
2018-07-15T18:37:05.068Z,91.60
2018-07-15T18:39:36.043Z,91.90
2018-07-15T18:42:05.542Z,91.20
2018-07-15T18:49:11.985Z,90.70
2018-07-15T18:51:41.660Z,90.30
2018-07-15T18:54:10.320Z,90.60
2018-07-15T18:56:39.662Z,91.40
2018-07-15T18:59:11.458Z,92.10
2018-07-15T19:01:43.167Z,91.80
2018-07-15T19:04:13.581Z,92.40
2018-07-15T19:06:42.187Z,93.50
2018-07-15T19:09:11.272Z,93.60
2018-07-15T19:17:28.700Z,94.00
2018-07-15T19:20:20.140Z,94.30
2018-07-15T19:22:51.942Z,94.80
2018-07-15T19:25:23.228Z,94.40
2018-07-15T19:27:55.826Z,94.50
2018-07-15T19:30:24.343Z,94.90
2018-07-15T19:32:55.514Z,94.90
2018-07-15T19:35:25.302Z,93.90
2018-07-15T19:37:54.894Z,93.80
2018-07-15T19:40:23.749Z,94.10
2018-07-15T19:42:52.457Z,94.40
2018-07-15T19:45:23.167Z,94.70
2018-07-15T19:47:51.891Z,94.70
2018-07-15T19:50:20.506Z,97.60
2018-07-15T19:52:49.343Z,98.70
2018-07-15T19:55:17.875Z,99.50
2018-07-15T19:57:46.829Z,99.90
2018-07-15T20:00:15.566Z,99.90
2018-07-15T20:02:44.446Z,99.90
2018-07-15T20:05:13.128Z,99.90
2018-07-15T20:07:41.657Z,99.90
2018-07-15T20:10:10.418Z,99.90
2018-07-15T20:12:39.006Z,99.90
2018-07-15T20:15:07.690Z,99.90
2018-07-15T20:17:36.349Z,99.90
2018-07-15T20:20:05.067Z,99.90
2018-07-15T20:22:33.832Z,99.90
2018-07-15T20:25:02.773Z,99.90
2018-07-15T20:27:37.861Z,99.90
2018-07-15T20:30:06.480Z,99.90
2018-07-15T20:32:35.108Z,99.90
2018-07-15T20:35:04.372Z,99.90
2018-07-15T20:37:33.051Z,99.90
2018-07-15T20:40:01.693Z,99.90
2018-07-15T20:42:30.488Z,99.90
2018-07-15T20:44:59.089Z,99.90
2018-07-15T20:47:27.725Z,99.90
2018-07-15T20:49:56.464Z,99.90
2018-07-15T20:52:25.574Z,99.90
2018-07-15T20:54:54.233Z,99.90
2018-07-15T20:57:23.437Z,99.90
2018-07-15T20:59:52.118Z,99.90
2018-07-15T21:02:21.558Z,99.90
2018-07-15T21:04:50.246Z,99.90
2018-07-15T21:07:19.204Z,99.90
2018-07-15T21:09:47.788Z,99.90
2018-07-15T21:12:16.578Z,99.90
2018-07-15T21:14:45.350Z,99.90
2018-07-15T21:17:14.212Z,99.90
2018-07-15T21:19:45.305Z,99.90
2018-07-15T21:22:14.205Z,99.90
2018-07-15T21:24:43.043Z,99.90
2018-07-15T21:27:11.694Z,99.90
2018-07-15T21:29:41.177Z,99.90
2018-07-15T21:32:09.704Z,99.90
2018-07-15T21:34:38.332Z,99.90
2018-07-15T21:37:07.396Z,99.90
2018-07-15T21:39:38.431Z,99.90
2018-07-15T21:42:13.540Z,99.90
2018-07-15T21:44:42.975Z,99.90
2018-07-15T21:47:11.720Z,99.90
2018-07-15T21:49:40.421Z,99.90
2018-07-15T21:52:09.278Z,99.90
2018-07-15T21:54:37.863Z,99.90
2018-07-15T21:57:06.547Z,99.90
2018-07-15T21:59:35.059Z,99.90
2018-07-15T22:02:04.013Z,99.90
2018-07-15T22:04:32.758Z,99.90
2018-07-15T22:07:12.513Z,99.90
2018-07-15T22:09:53.095Z,99.90
2018-07-15T22:12:21.976Z,99.90
2018-07-15T22:14:50.851Z,99.90
2018-07-15T22:17:20.803Z,99.90
2018-07-15T22:19:50.853Z,99.90
2018-07-15T22:22:19.514Z,99.90
2018-07-15T22:24:49.015Z,99.90
2018-07-15T22:27:26.169Z,99.90
2018-07-15T22:29:56.714Z,99.90
2018-07-15T22:32:25.371Z,99.90
2018-07-15T22:34:54.300Z,99.90
2018-07-15T22:37:23.088Z,99.90
2018-07-15T22:39:57.330Z,99.90
2018-07-15T22:42:43.434Z,99.90
2018-07-15T22:45:12.369Z,99.90
2018-07-15T22:47:40.966Z,99.90
2018-07-15T22:50:11.054Z,99.90
2018-07-15T22:52:39.710Z,99.90
2018-07-15T22:55:08.409Z,99.90
2018-07-15T22:57:51.657Z,99.90
2018-07-15T23:00:29.547Z,99.90
2018-07-15T23:02:59.760Z,99.90
2018-07-15T23:05:40.905Z,99.90
2018-07-15T23:08:09.842Z,99.90
2018-07-15T23:10:38.853Z,99.90
2018-07-15T23:13:08.414Z,99.90
2018-07-15T23:15:37.420Z,99.90
2018-07-15T23:18:06.227Z,99.90
2018-07-15T23:20:35.667Z,99.90
2018-07-15T23:23:05.165Z,99.90
2018-07-15T23:25:33.973Z,99.90
2018-07-15T23:28:03.420Z,99.90
2018-07-15T23:30:36.780Z,99.90
2018-07-15T23:33:06.645Z,99.90
2018-07-15T23:35:36.127Z,99.90
2018-07-15T23:38:04.834Z,99.90
2018-07-15T23:40:33.585Z,99.90
2018-07-15T23:43:02.476Z,99.90
2018-07-15T23:45:32.045Z,99.90
2018-07-15T23:48:00.561Z,99.90
2018-07-15T23:50:29.217Z,99.90
2018-07-15T23:52:57.888Z,99.90
2018-07-15T23:55:26.729Z,99.90
2018-07-15T23:57:57.120Z,99.90
